Time;durP1;ratioP1;P1;durP2;ratioP2;P2;SDS_P1;SDS_P2;PMS_P1;PMS_P2;Temp;Humidity;BMP_temperature;BMP_pressure;BME280_temperature;BME280_humidity;BME280_pressure;Samples;Min_cycle;Max_cycle;Signal;HPM_P1;HPM_P2
2021/05/21 00:00:39;;;;;;;22.20;5.13;;;12.30;99.90;;;;;;6263406;22;20169;-79
2021/05/21 00:03:06;;;;;;;22.67;4.87;;;12.30;99.90;;;;;;6264149;22;20176;-81
2021/05/21 00:05:32;;;;;;;26.40;5.53;;;12.20;99.90;;;;;;6264547;22;20169;-78
2021/05/21 00:07:58;;;;;;;21.23;4.33;;;12.20;99.90;;;;;;6266104;22;20188;-78
2021/05/21 00:10:25;;;;;;;30.57;5.83;;;12.10;99.90;;;;;;6265920;22;20188;-81
2021/05/21 00:12:52;;;;;;;26.20;4.80;;;12.00;99.90;;;;;;6266515;22;20173;-79
2021/05/21 00:15:19;;;;;;;21.70;5.30;;;12.00;99.90;;;;;;6266074;22;20181;-79
2021/05/21 00:17:45;;;;;;;22.37;4.77;;;12.00;99.90;;;;;;6266063;22;20177;-80
2021/05/21 00:20:13;;;;;;;20.20;4.40;;;11.90;99.90;;;;;;6265767;22;20170;-78
2021/05/21 00:22:40;;;;;;;22.67;5.13;;;11.90;99.90;;;;;;6266053;22;20176;-77
2021/05/21 00:25:07;;;;;;;26.03;4.87;;;11.80;99.90;;;;;;6266364;22;20230;-79
2021/05/21 00:27:33;;;;;;;26.83;6.00;;;11.80;99.90;;;;;;6266757;22;20173;-78
2021/05/21 00:30:01;;;;;;;29.97;6.67;;;11.80;99.90;;;;;;6265064;22;20247;-81
2021/05/21 00:32:27;;;;;;;25.73;4.80;;;11.80;99.90;;;;;;6266803;22;20234;-81
2021/05/21 00:34:53;;;;;;;26.27;6.17;;;11.80;99.90;;;;;;6265856;22;20169;-80
2021/05/21 00:37:20;;;;;;;27.03;5.17;;;11.70;99.90;;;;;;6266378;22;20176;-77
2021/05/21 00:39:46;;;;;;;27.97;5.60;;;11.70;99.90;;;;;;6266850;22;20172;-80
2021/05/21 00:42:12;;;;;;;31.93;6.43;;;11.70;99.90;;;;;;6266602;22;20192;-77
2021/05/21 00:44:38;;;;;;;26.60;6.10;;;11.70;99.90;;;;;;6264962;22;20169;-78
2021/05/21 00:47:06;;;;;;;31.60;6.20;;;11.70;99.90;;;;;;6265105;22;20876;-77
2021/05/21 00:49:33;;;;;;;25.23;5.20;;;11.70;99.90;;;;;;6266221;22;20172;-76
2021/05/21 00:52:03;;;;;;;23.37;5.80;;;11.80;99.90;;;;;;6265943;22;20180;-77
2021/05/21 00:54:29;;;;;;;32.30;5.83;;;11.80;99.90;;;;;;6266236;22;20905;-78
2021/05/21 00:56:55;;;;;;;28.57;5.90;;;11.80;99.90;;;;;;6265859;22;20474;-78
2021/05/21 00:59:22;;;;;;;24.07;5.00;;;11.80;99.90;;;;;;6265770;22;20165;-77
2021/05/21 01:01:51;;;;;;;25.33;5.83;;;11.80;99.90;;;;;;6265754;22;20180;-79
2021/05/21 01:04:18;;;;;;;23.90;5.53;;;11.70;99.90;;;;;;6266304;22;20180;-78
2021/05/21 01:06:44;;;;;;;26.70;5.20;;;11.70;99.90;;;;;;6267012;22;20184;-78
2021/05/21 01:09:10;;;;;;;25.87;7.10;;;11.70;99.90;;;;;;6265808;22;20199;-75
2021/05/21 01:11:37;;;;;;;27.63;7.33;;;11.70;99.90;;;;;;6265486;22;20203;-79
2021/05/21 01:14:04;;;;;;;25.93;5.43;;;11.60;99.90;;;;;;6265075;22;20231;-80
2021/05/21 01:16:30;;;;;;;20.87;5.00;;;11.70;99.90;;;;;;6264753;22;20849;-77
2021/05/21 01:19:02;;;;;;;29.17;4.97;;;11.60;99.90;;;;;;6265950;22;20183;-77
2021/05/21 01:21:30;;;;;;;29.23;5.33;;;11.60;99.90;;;;;;6264322;22;20207;-76
2021/05/21 01:23:56;;;;;;;28.43;5.37;;;11.60;99.90;;;;;;6265540;22;20625;-77
2021/05/21 01:26:23;;;;;;;31.80;6.47;;;11.60;99.90;;;;;;6263923;22;20561;-76
2021/05/21 01:28:49;;;;;;;28.63;5.73;;;11.60;99.90;;;;;;6264800;22;20225;-75
2021/05/21 01:31:16;;;;;;;32.37;7.07;;;11.50;99.90;;;;;;6265195;22;20189;-79
2021/05/21 01:33:42;;;;;;;43.57;6.67;;;11.50;99.90;;;;;;6264844;22;20168;-76
2021/05/21 01:36:09;;;;;;;27.70;5.67;;;11.50;99.90;;;;;;6265112;22;20212;-76
2021/05/21 01:38:37;;;;;;;30.47;7.27;;;11.50;99.90;;;;;;6264957;22;20206;-77
2021/05/21 01:41:04;;;;;;;31.60;6.67;;;11.50;99.90;;;;;;6263920;22;20196;-75
2021/05/21 01:43:31;;;;;;;38.87;6.77;;;11.50;99.90;;;;;;6265224;22;20168;-75
2021/05/21 01:45:58;;;;;;;36.43;7.13;;;11.50;99.90;;;;;;6264933;22;20226;-77
2021/05/21 01:48:25;;;;;;;39.40;6.33;;;11.50;99.90;;;;;;6264102;22;20283;-77
2021/05/21 01:50:52;;;;;;;30.23;6.77;;;11.40;99.90;;;;;;6264112;22;20192;-78
2021/05/21 01:53:18;;;;;;;30.83;5.77;;;11.40;99.90;;;;;;6264629;22;20184;-76
2021/05/21 01:55:51;;;;;;;37.07;8.23;;;11.40;99.90;;;;;;6264457;22;20199;-76
2021/05/21 01:58:17;;;;;;;41.50;7.43;;;11.40;99.90;;;;;;6264494;22;20172;-76
2021/05/21 02:00:43;;;;;;;42.33;7.63;;;11.40;99.90;;;;;;6263692;22;20179;-77
2021/05/21 02:03:09;;;;;;;34.77;7.30;;;11.40;99.90;;;;;;6264994;22;20177;-76
2021/05/21 02:05:36;;;;;;;28.80;6.57;;;11.40;99.90;;;;;;6265049;22;20180;-78
2021/05/21 02:08:02;;;;;;;28.00;7.00;;;11.40;99.90;;;;;;6263606;22;20172;-78
2021/05/21 02:10:28;;;;;;;35.27;7.13;;;11.40;99.90;;;;;;6264556;22;20188;-78
2021/05/21 02:12:56;;;;;;;31.00;6.80;;;11.40;99.90;;;;;;6265086;22;20187;-76
2021/05/21 02:15:22;;;;;;;33.53;7.10;;;11.40;99.90;;;;;;6264336;22;20919;-77
2021/05/21 02:17:48;;;;;;;41.13;8.70;;;11.40;99.90;;;;;;6265047;22;20173;-76
2021/05/21 02:20:15;;;;;;;34.33;6.40;;;11.40;99.90;;;;;;6263855;22;20169;-76
2021/05/21 02:22:42;;;;;;;36.40;6.67;;;11.40;99.90;;;;;;6262782;22;20176;-75
2021/05/21 02:25:10;;;;;;;28.17;6.80;;;11.30;99.90;;;;;;6264626;22;20207;-76
2021/05/21 02:27:36;;;;;;;30.50;5.97;;;11.30;99.90;;;;;;6264338;22;20222;-76
2021/05/21 02:30:05;;;;;;;35.30;6.47;;;11.30;99.90;;;;;;6263171;22;20921;-76
2021/05/21 02:32:31;;;;;;;31.27;7.20;;;11.30;99.90;;;;;;6264070;22;20176;-77
2021/05/21 02:34:57;;;;;;;40.73;8.23;;;11.30;99.90;;;;;;6263858;22;20179;-77
2021/05/21 02:37:23;;;;;;;32.33;7.20;;;11.30;99.90;;;;;;6263896;22;20181;-79
2021/05/21 02:39:50;;;;;;;41.97;9.07;;;11.30;99.90;;;;;;6264343;22;20188;-76
2021/05/21 02:42:16;;;;;;;33.73;7.10;;;11.30;99.90;;;;;;6263538;22;20196;-75
2021/05/21 02:44:42;;;;;;;35.93;7.63;;;11.40;99.90;;;;;;6262436;22;20207;-78
2021/05/21 02:47:09;;;;;;;32.67;7.63;;;11.40;99.90;;;;;;6264061;22;20230;-77
2021/05/21 02:49:36;;;;;;;43.43;8.23;;;11.40;99.90;;;;;;6263802;22;20184;-76
2021/05/21 02:52:02;;;;;;;29.23;6.93;;;11.40;99.90;;;;;;6263351;22;20444;-75
2021/05/21 02:54:29;;;;;;;31.50;6.80;;;11.50;99.90;;;;;;6262715;22;20276;-75
2021/05/21 02:56:55;;;;;;;37.03;7.43;;;11.50;99.90;;;;;;6262922;22;20258;-77
2021/05/21 02:59:22;;;;;;;43.10;7.13;;;11.50;99.90;;;;;;6263429;22;20176;-77
2021/05/21 03:01:48;;;;;;;36.47;7.33;;;11.60;99.90;;;;;;6264367;22;20235;-75
2021/05/21 03:04:15;;;;;;;31.90;7.30;;;11.60;99.90;;;;;;6263679;22;20176;-76
2021/05/21 03:06:41;;;;;;;30.47;6.43;;;11.60;99.90;;;;;;6263837;22;20176;-78
2021/05/21 03:09:08;;;;;;;37.67;7.30;;;11.60;99.90;;;;;;6264109;22;20177;-76
2021/05/21 03:11:34;;;;;;;39.17;7.43;;;11.60;99.90;;;;;;6263171;22;20192;-77
2021/05/21 03:14:00;;;;;;;32.80;8.77;;;11.60;99.90;;;;;;6263072;22;20173;-77
2021/05/21 03:16:27;;;;;;;26.00;6.20;;;11.60;99.90;;;;;;6264243;22;20176;-77
2021/05/21 03:18:53;;;;;;;29.10;6.10;;;11.60;99.90;;;;;;6262850;22;20173;-75
2021/05/21 03:21:20;;;;;;;26.83;6.53;;;11.60;99.90;;;;;;6263509;22;20775;-77
2021/05/21 03:23:47;;;;;;;32.97;8.37;;;11.50;99.90;;;;;;6263409;22;20172;-76
2021/05/21 03:26:13;;;;;;;31.17;6.60;;;11.50;99.90;;;;;;6262489;22;20169;-75
2021/05/21 03:28:40;;;;;;;26.50;5.87;;;11.50;99.90;;;;;;6263396;22;20179;-77
2021/05/21 03:31:07;;;;;;;32.87;7.67;;;11.50;99.90;;;;;;6263010;22;20280;-78
2021/05/21 03:33:33;;;;;;;31.90;6.30;;;11.50;99.90;;;;;;6263046;22;20173;-77
2021/05/21 03:35:59;;;;;;;26.93;6.23;;;11.60;99.90;;;;;;6263454;22;20180;-77
2021/05/21 03:38:27;;;;;;;29.13;7.27;;;11.50;99.90;;;;;;6263887;22;20747;-77
2021/05/21 03:40:54;;;;;;;30.53;6.93;;;11.50;99.90;;;;;;6264064;22;20189;-77
2021/05/21 03:43:20;;;;;;;28.70;6.10;;;11.50;99.90;;;;;;6266157;22;20184;-76
2021/05/21 03:45:46;;;;;;;26.10;5.53;;;11.50;99.90;;;;;;6264408;22;20172;-76
2021/05/21 03:48:13;;;;;;;33.60;6.97;;;11.50;99.90;;;;;;6265909;22;20593;-76
2021/05/21 03:50:40;;;;;;;31.23;7.60;;;11.50;99.90;;;;;;6266073;22;20197;-75
2021/05/21 03:53:06;;;;;;;33.53;5.70;;;11.50;99.90;;;;;;6265803;22;20232;-78
2021/05/21 03:55:33;;;;;;;30.37;6.20;;;11.50;99.90;;;;;;6265083;22;20585;-77
2021/05/21 03:58:00;;;;;;;28.13;6.30;;;11.50;99.90;;;;;;6265578;22;20200;-76
2021/05/21 04:00:27;;;;;;;38.07;6.43;;;11.60;99.90;;;;;;6265163;22;20565;-77
2021/05/21 04:02:53;;;;;;;31.27;6.50;;;11.70;99.90;;;;;;6265918;22;20173;-78
2021/05/21 04:05:21;;;;;;;21.77;5.20;;;11.70;99.90;;;;;;6265682;22;20177;-77
2021/05/21 04:07:49;;;;;;;33.27;6.80;;;11.70;99.90;;;;;;6265135;22;20237;-79
2021/05/21 04:10:15;;;;;;;26.83;6.37;;;11.80;99.90;;;;;;6265440;22;20204;-76
2021/05/21 04:12:43;;;;;;;29.37;6.27;;;11.80;99.90;;;;;;6265666;22;20176;-76
2021/05/21 04:15:11;;;;;;;35.73;6.90;;;11.90;99.90;;;;;;6264739;22;20180;-75
2021/05/21 04:17:37;;;;;;;26.43;6.37;;;11.90;99.90;;;;;;6265585;22;20831;-74
2021/05/21 04:20:05;;;;;;;23.50;5.63;;;11.90;99.90;;;;;;6265525;22;20169;-77
2021/05/21 04:22:31;;;;;;;32.17;7.93;;;11.90;99.90;;;;;;6264896;22;20176;-77
2021/05/21 04:24:58;;;;;;;27.53;6.63;;;11.90;99.90;;;;;;6265257;22;20172;-78
2021/05/21 04:27:24;;;;;;;32.90;8.43;;;11.90;99.90;;;;;;6265082;22;20173;-78
2021/05/21 04:29:51;;;;;;;26.63;6.93;;;11.90;99.90;;;;;;6264727;22;20181;-77
2021/05/21 04:32:17;;;;;;;29.10;6.67;;;12.00;99.90;;;;;;6265467;22;20541;-79
2021/05/21 04:34:44;;;;;;;29.83;6.77;;;12.00;99.90;;;;;;6265195;22;20173;-76
2021/05/21 04:37:10;;;;;;;32.43;8.50;;;12.00;99.90;;;;;;6263915;22;20173;-77
2021/05/21 04:39:36;;;;;;;24.73;6.30;;;12.00;99.90;;;;;;6264561;22;20169;-76
2021/05/21 04:42:03;;;;;;;30.17;6.47;;;12.00;99.90;;;;;;6264140;22;20255;-78
2021/05/21 04:44:30;;;;;;;27.13;5.70;;;12.00;99.90;;;;;;6263098;22;20557;-77
2021/05/21 04:46:57;;;;;;;28.57;6.50;;;12.00;99.90;;;;;;6265192;22;20172;-77
2021/05/21 04:49:35;;;;;;;27.83;6.40;;;12.00;99.90;;;;;;6263964;22;20168;-77
2021/05/21 04:52:03;;;;;;;27.90;5.07;;;12.00;99.90;;;;;;6264604;22;20188;-75
2021/05/21 04:54:29;;;;;;;25.37;5.57;;;12.00;99.90;;;;;;6263893;22;20180;-76
2021/05/21 04:56:56;;;;;;;19.43;4.87;;;12.00;99.90;;;;;;6263906;22;20871;-76
2021/05/21 04:59:23;;;;;;;25.80;6.30;;;12.00;99.90;;;;;;6264801;22;20629;-76
2021/05/21 05:01:49;;;;;;;24.73;5.47;;;11.90;99.90;;;;;;6264369;22;20184;-77
2021/05/21 05:04:17;;;;;;;18.93;4.57;;;11.90;99.90;;;;;;6265400;22;20176;-78
2021/05/21 05:06:43;;;;;;;23.10;4.77;;;11.80;99.90;;;;;;6265203;22;20177;-78
2021/05/21 05:09:10;;;;;;;24.33;5.23;;;11.80;99.90;;;;;;6264230;22;20184;-78
2021/05/21 05:11:39;;;;;;;20.70;4.07;;;11.70;99.90;;;;;;6265131;22;20196;-77
2021/05/21 05:14:06;;;;;;;19.07;4.20;;;11.70;99.90;;;;;;6264185;22;20240;-76
2021/05/21 05:16:32;;;;;;;27.80;5.93;;;11.60;99.90;;;;;;6265182;22;20172;-77
2021/05/21 05:18:58;;;;;;;23.30;4.93;;;11.60;99.90;;;;;;6264111;22;20540;-77
2021/05/21 05:21:26;;;;;;;17.93;4.17;;;11.70;99.90;;;;;;6265127;22;20181;-80
2021/05/21 05:23:52;;;;;;;22.73;4.47;;;11.70;99.90;;;;;;6266573;22;20246;-78
2021/05/21 05:26:19;;;;;;;20.77;4.30;;;11.70;99.90;;;;;;6264633;22;20165;-80
2021/05/21 05:28:45;;;;;;;16.80;4.27;;;11.70;99.90;;;;;;6263996;22;20635;-79
2021/05/21 05:31:12;;;;;;;27.57;5.10;;;11.70;99.90;;;;;;6263305;22;20195;-79
2021/05/21 05:33:40;;;;;;;25.57;4.80;;;11.80;99.90;;;;;;6264328;22;20204;-80
2021/05/21 05:36:07;;;;;;;24.60;5.03;;;11.80;99.90;;;;;;6263794;22;20436;-79
2021/05/21 05:38:35;;;;;;;24.40;4.60;;;11.80;99.90;;;;;;6262064;22;20177;-80
2021/05/21 05:41:02;;;;;;;22.47;5.37;;;11.90;99.90;;;;;;6263484;22;20208;-80
2021/05/21 05:43:28;;;;;;;28.10;5.90;;;11.90;99.90;;;;;;6263767;22;20173;-79
2021/05/21 05:45:55;;;;;;;22.53;4.30;;;11.90;99.90;;;;;;6263343;22;20235;-78
2021/05/21 05:48:21;;;;;;;26.27;6.37;;;11.90;99.90;;;;;;6263815;22;20226;-79
2021/05/21 05:50:48;;;;;;;24.03;5.00;;;11.90;99.90;;;;;;6263577;22;20279;-79
2021/05/21 05:53:15;;;;;;;22.60;6.07;;;11.90;99.90;;;;;;6263069;22;20169;-79
2021/05/21 05:55:42;;;;;;;30.37;6.63;;;11.90;99.90;;;;;;6264009;22;20176;-78
2021/05/21 05:58:09;;;;;;;28.03;6.20;;;12.00;99.90;;;;;;6262491;22;20197;-79
2021/05/21 06:00:35;;;;;;;31.73;7.20;;;12.00;99.90;;;;;;6263544;22;20172;-79
2021/05/21 06:03:10;;;;;;;25.37;6.50;;;12.10;99.90;;;;;;6263345;22;20231;-79
2021/05/21 06:05:37;;;;;;;32.17;7.17;;;12.10;99.90;;;;;;6263432;22;20178;-78
2021/05/21 06:08:05;;;;;;;25.70;7.23;;;12.20;99.90;;;;;;6262404;22;20183;-78
2021/05/21 06:10:32;;;;;;;30.87;6.43;;;12.20;99.90;;;;;;6263818;22;20196;-77
2021/05/21 06:13:14;;;;;;;30.90;7.40;;;12.30;99.90;;;;;;6263467;22;20176;-77
2021/05/21 06:15:40;;;;;;;40.43;7.03;;;12.30;99.90;;;;;;6261728;22;20527;-78
2021/05/21 06:18:07;;;;;;;32.23;7.37;;;12.30;99.90;;;;;;6262932;22;20177;-78
2021/05/21 06:20:35;;;;;;;32.20;6.93;;;12.40;99.90;;;;;;6262233;22;20579;-78
2021/05/21 06:23:02;;;;;;;27.50;6.47;;;12.40;99.90;;;;;;6263316;22;20711;-77
2021/05/21 06:25:40;;;;;;;29.53;6.27;;;12.50;99.90;;;;;;6263626;22;20479;-76
2021/05/21 06:28:07;;;;;;;26.67;5.87;;;12.50;99.90;;;;;;6262493;22;20168;-76
2021/05/21 06:30:34;;;;;;;28.97;7.30;;;12.50;99.90;;;;;;6263784;22;20212;-77
2021/05/21 06:33:00;;;;;;;27.37;6.17;;;12.60;99.90;;;;;;6263323;22;20165;-77
2021/05/21 06:35:27;;;;;;;32.87;6.57;;;12.60;99.90;;;;;;6262757;22;20169;-77
2021/05/21 06:37:53;;;;;;;26.00;6.80;;;12.70;99.90;;;;;;6263573;22;20175;-76
2021/05/21 06:40:20;;;;;;;32.33;8.30;;;12.70;99.90;;;;;;6263895;22;20176;-77
2021/05/21 06:42:47;;;;;;;32.63;9.70;;;12.70;99.90;;;;;;6263813;22;20180;-77
2021/05/21 06:46:11;;;;;;;27.73;6.47;;;12.80;99.90;;;;;;6149391;22;20613;-75
2021/05/21 06:48:39;;;;;;;32.70;7.13;;;12.80;99.90;;;;;;6263123;22;20188;-76
2021/05/21 06:51:06;;;;;;;34.73;8.17;;;12.90;99.90;;;;;;6263985;22;20201;-76
2021/05/21 06:53:34;;;;;;;32.30;7.40;;;13.00;99.90;;;;;;6263072;22;20173;-75
2021/05/21 06:56:01;;;;;;;29.40;6.67;;;13.00;99.90;;;;;;6262596;22;20184;-77
2021/05/21 06:58:28;;;;;;;29.03;6.83;;;13.10;99.90;;;;;;6263180;22;20157;-78
2021/05/21 07:00:56;;;;;;;27.90;7.53;;;13.10;99.90;;;;;;6263907;22;20173;-78
2021/05/21 07:03:27;;;;;;;27.20;6.43;;;13.20;99.90;;;;;;6262556;22;20208;-77
2021/05/21 07:05:54;;;;;;;27.63;7.57;;;13.20;99.90;;;;;;6263280;22;20219;-77
2021/05/21 07:08:20;;;;;;;34.83;7.37;;;13.30;99.90;;;;;;6263318;22;20556;-77
2021/05/21 07:10:47;;;;;;;32.10;6.13;;;13.30;99.90;;;;;;6262013;22;20672;-76
2021/05/21 07:13:15;;;;;;;26.87;7.20;;;13.30;99.90;;;;;;6263801;22;20247;-78
2021/05/21 07:15:42;;;;;;;32.07;7.50;;;13.40;99.90;;;;;;6262741;22;20172;-77
2021/05/21 07:18:08;;;;;;;26.80;5.90;;;13.40;99.90;;;;;;6263186;22;20698;-76
2021/05/21 07:20:35;;;;;;;32.87;7.57;;;13.40;99.90;;;;;;6262570;22;20230;-77
2021/05/21 07:23:02;;;;;;;28.00;6.40;;;13.40;99.90;;;;;;6263332;22;20203;-76
2021/05/21 07:25:29;;;;;;;27.40;7.20;;;13.40;99.90;;;;;;6262763;22;20474;-77
2021/05/21 07:27:55;;;;;;;30.43;6.23;;;13.40;99.90;;;;;;6262996;22;20173;-76
2021/05/21 07:30:22;;;;;;;34.87;7.57;;;13.50;99.90;;;;;;6262416;22;20189;-77
2021/05/21 07:32:48;;;;;;;33.27;7.50;;;13.50;99.90;;;;;;6262208;22;20172;-76
2021/05/21 07:35:15;;;;;;;24.87;6.67;;;13.60;99.90;;;;;;6264882;22;20172;-77
2021/05/21 07:37:43;;;;;;;29.17;5.83;;;13.80;99.90;;;;;;6263457;22;20168;-77
2021/05/21 07:40:11;;;;;;;26.80;5.80;;;14.10;99.90;;;;;;6262077;22;20200;-78
2021/05/21 07:42:38;;;;;;;29.97;7.77;;;14.20;99.90;;;;;;6262122;22;20172;-79
2021/05/21 07:45:06;;;;;;;28.87;6.13;;;14.40;99.90;;;;;;6261219;22;20255;-77
2021/05/21 07:47:33;;;;;;;25.00;5.87;;;14.50;99.90;;;;;;6262926;22;20176;-78
2021/05/21 07:49:59;;;;;;;19.70;6.03;;;14.60;99.90;;;;;;6263355;22;20180;-78
2021/05/21 07:52:25;;;;;;;30.97;5.53;;;14.60;99.90;;;;;;6262971;22;20201;-77
2021/05/21 07:54:51;;;;;;;21.83;6.37;;;14.60;99.90;;;;;;6262935;22;20176;-76
2021/05/21 07:57:19;;;;;;;25.53;6.17;;;14.60;99.90;;;;;;6263122;22;20632;-79
2021/05/21 07:59:45;;;;;;;34.33;7.23;;;14.60;99.90;;;;;;6262562;22;20238;-79
2021/05/21 08:02:11;;;;;;;25.23;5.83;;;14.50;99.90;;;;;;6263330;22;20227;-79
2021/05/21 08:04:37;;;;;;;24.03;6.40;;;14.50;99.90;;;;;;6263633;22;20173;-79
2021/05/21 08:07:04;;;;;;;27.57;6.97;;;14.50;99.90;;;;;;6262364;22;20182;-78
2021/05/21 08:09:30;;;;;;;35.00;7.30;;;14.40;99.90;;;;;;6262361;22;20165;-77
2021/05/21 08:11:57;;;;;;;25.30;6.43;;;14.30;99.90;;;;;;6263120;22;20634;-77
2021/05/21 08:14:24;;;;;;;26.43;6.27;;;14.30;99.90;;;;;;6262606;22;20172;-78
2021/05/21 08:16:50;;;;;;;24.57;5.97;;;14.30;99.90;;;;;;6262956;22;20165;-78
2021/05/21 08:19:16;;;;;;;24.00;5.47;;;14.20;99.90;;;;;;6263801;22;20585;-79
2021/05/21 08:21:42;;;;;;;26.00;6.07;;;14.20;99.90;;;;;;6262608;22;20169;-78
2021/05/21 08:24:10;;;;;;;26.60;5.67;;;14.20;99.90;;;;;;6262913;22;20165;-81
2021/05/21 08:26:36;;;;;;;30.80;6.53;;;14.20;99.90;;;;;;6264051;22;20180;-79
2021/05/21 08:29:03;;;;;;;25.30;5.73;;;14.30;99.90;;;;;;6263608;22;20175;-77
2021/05/21 08:31:30;;;;;;;25.93;7.37;;;14.40;99.90;;;;;;6264201;22;20485;-77
2021/05/21 08:33:56;;;;;;;28.63;7.23;;;14.60;99.90;;;;;;6264691;22;20173;-79
2021/05/21 08:36:23;;;;;;;24.27;5.73;;;14.90;99.90;;;;;;6264431;22;20176;-77
2021/05/21 08:38:50;;;;;;;23.50;6.03;;;15.20;99.90;;;;;;6261342;22;20446;-77
2021/05/21 08:41:18;;;;;;;23.40;5.63;;;15.30;99.90;;;;;;6263297;22;20192;-78
2021/05/21 08:43:47;;;;;;;28.53;6.37;;;15.40;99.90;;;;;;6262957;22;20484;-77
2021/05/21 08:46:14;;;;;;;34.97;7.30;;;15.80;99.90;;;;;;6262540;22;20165;-77
2021/05/21 08:48:42;;;;;;;25.00;6.13;;;15.90;99.90;;;;;;6262428;22;20183;-77
2021/05/21 08:51:09;;;;;;;29.97;7.27;;;15.90;99.90;;;;;;6262611;22;20193;-76
2021/05/21 08:53:37;;;;;;;23.07;6.03;;;15.90;99.90;;;;;;6262691;22;20292;-77
2021/05/21 08:56:03;;;;;;;22.77;6.47;;;15.80;99.90;;;;;;6261492;22;20282;-79
2021/05/21 08:58:30;;;;;;;17.33;4.83;;;15.60;99.90;;;;;;6262537;22;20183;-77
2021/05/21 09:00:56;;;;;;;24.20;5.20;;;15.50;99.90;;;;;;6263283;22;20180;-79
2021/05/21 09:03:24;;;;;;;16.73;4.43;;;15.50;99.90;;;;;;6261240;22;20172;-77
2021/05/21 09:06:18;;;;;;;24.90;6.03;;;15.50;99.90;;;;;;6262654;22;20173;-77
2021/05/21 09:08:47;;;;;;;26.47;5.10;;;15.50;99.90;;;;;;6241186;22;20173;-78
2021/05/21 09:11:40;;;;;;;25.87;5.50;;;15.60;99.90;;;;;;6260718;22;20199;-78
2021/05/21 09:14:08;;;;;;;18.00;4.47;;;15.70;99.90;;;;;;6262491;22;20339;-76
2021/05/21 09:16:36;;;;;;;25.10;4.70;;;16.00;99.90;;;;;;6261021;22;20173;-80
2021/05/21 09:19:11;;;;;;;16.73;4.30;;;16.40;99.90;;;;;;6263499;22;20172;-78
2021/05/21 09:21:57;;;;;;;24.10;5.30;;;16.90;99.90;;;;;;6263561;22;20437;-78
2021/05/21 09:24:27;;;;;;;24.50;5.10;;;17.20;99.90;;;;;;6261577;22;20168;-77
2021/05/21 09:26:55;;;;;;;30.73;5.93;;;17.40;99.90;;;;;;6261969;22;20237;-79
2021/05/21 09:29:43;;;;;;;21.43;5.53;;;17.60;99.90;;;;;;6262927;22;20888;-78
2021/05/21 09:32:25;;;;;;;21.92;5.22;;;17.90;99.90;;;;;;6261075;22;20198;-78
2021/05/21 09:35:06;;;;;;;24.33;5.17;;;18.10;99.90;;;;;;6262876;22;20171;-78
2021/05/21 09:37:35;;;;;;;30.48;5.70;;;18.20;99.90;;;;;;6261067;22;20191;-78
2021/05/21 09:40:04;;;;;;;21.90;5.82;;;18.00;99.90;;;;;;6263825;22;20180;-78
2021/05/21 09:42:50;;;;;;;27.33;6.53;;;17.60;99.90;;;;;;6263885;22;20811;-79
2021/05/21 09:45:22;;;;;;;23.73;6.07;;;17.10;99.90;;;;;;6263186;22;20623;-78
2021/05/21 09:47:56;;;;;;;20.10;5.83;;;17.00;99.90;;;;;;6264373;22;20261;-76
2021/05/21 09:50:38;;;;;;;24.23;5.30;;;17.10;99.90;;;;;;6264843;22;20175;-81
2021/05/21 09:53:12;;;;;;;20.13;4.90;;;17.20;99.90;;;;;;6261168;22;20165;-77
2021/05/21 09:55:49;;;;;;;17.87;4.77;;;17.10;99.90;;;;;;6262801;22;20278;-77
2021/05/21 09:58:26;;;;;;;24.17;5.83;;;17.10;99.90;;;;;;6261176;22;20207;-76
2021/05/21 10:01:09;;;;;;;19.37;4.97;;;17.00;99.90;;;;;;6261332;22;20897;-76
2021/05/21 10:03:36;;;;;;;22.57;4.67;;;17.30;99.90;;;;;;6261618;22;20199;-77
2021/05/21 10:06:03;;;;;;;17.35;4.38;;;17.40;99.90;;;;;;6261678;22;20262;-77
2021/05/21 10:08:31;;;;;;;22.67;5.70;;;17.50;99.90;;;;;;6262511;22;20628;-77
2021/05/21 10:10:58;;;;;;;21.40;5.73;;;17.50;99.90;;;;;;6263012;22;20464;-80
2021/05/21 10:13:25;;;;;;;21.80;4.50;;;17.50;99.90;;;;;;6260873;22;20839;-77
2021/05/21 10:15:52;;;;;;;18.07;4.40;;;17.50;99.90;;;;;;6262640;22;20244;-78
2021/05/21 10:18:19;;;;;;;18.92;4.22;;;17.60;99.90;;;;;;6263897;22;20176;-78
2021/05/21 10:20:47;;;;;;;17.90;5.37;;;17.50;99.90;;;;;;6263488;22;20173;-75
2021/05/21 10:23:18;;;;;;;22.02;5.10;;;17.40;99.90;;;;;;6263873;22;20222;-77
2021/05/21 10:25:47;;;;;;;20.25;5.28;;;17.40;99.90;;;;;;6263211;22;20169;-77
2021/05/21 10:28:15;;;;;;;20.07;5.87;;;17.50;99.90;;;;;;6262065;22;20590;-78
2021/05/21 10:30:42;;;;;;;21.00;5.30;;;17.50;99.90;;;;;;6263792;22;20254;-77
2021/05/21 10:33:16;;;;;;;16.67;5.33;;;17.50;99.90;;;;;;6262992;22;20180;-77
2021/05/21 10:35:43;;;;;;;22.10;5.47;;;17.50;99.90;;;;;;6263566;22;20180;-80
2021/05/21 10:38:18;;;;;;;21.23;4.82;;;17.40;99.90;;;;;;6263443;22;20226;-79
2021/05/21 10:40:46;;;;;;;18.98;4.28;;;17.50;99.90;;;;;;6263251;22;20192;-80
2021/05/21 10:43:16;;;;;;;22.35;5.40;;;17.50;99.90;;;;;;6263160;22;20632;-79
2021/05/21 10:45:53;;;;;;;21.17;4.90;;;17.40;99.90;;;;;;6264066;22;20165;-78
2021/05/21 10:48:25;;;;;;;22.50;5.30;;;17.40;99.90;;;;;;6262784;22;20284;-80
2021/05/21 10:51:07;;;;;;;14.57;3.70;;;17.50;99.90;;;;;;6263862;22;20188;-77
2021/05/21 10:53:39;;;;;;;21.77;4.40;;;17.50;99.90;;;;;;6263796;22;20234;-79
2021/05/21 10:56:07;;;;;;;20.57;4.97;;;17.60;99.90;;;;;;6262704;22;20171;-78
2021/05/21 10:58:43;;;;;;;21.88;5.88;;;17.60;99.90;;;;;;6263306;22;20200;-76
2021/05/21 11:01:22;;;;;;;24.83;5.63;;;17.50;99.90;;;;;;6263950;22;20582;-78
2021/05/21 11:04:06;;;;;;;19.88;4.18;;;17.40;99.90;;;;;;6261911;22;20749;-77
2021/05/21 11:06:44;;;;;;;20.10;4.33;;;17.70;99.90;;;;;;6262887;22;20177;-78
2021/05/21 11:09:12;;;;;;;13.10;3.50;;;18.00;99.90;;;;;;6262322;22;20231;-78
2021/05/21 11:11:54;;;;;;;23.38;4.45;;;18.10;99.90;;;;;;6263005;22;20201;-79
2021/05/21 11:14:28;;;;;;;18.98;4.15;;;18.20;99.90;;;;;;6263323;22;20222;-77
2021/05/21 11:16:56;;;;;;;19.58;3.75;;;18.00;99.90;;;;;;6260430;22;20167;-76
2021/05/21 11:19:24;;;;;;;20.55;5.25;;;17.90;99.90;;;;;;6261639;22;20183;-78
2021/05/21 11:21:53;;;;;;;17.65;5.07;;;17.90;99.90;;;;;;6261690;22;20169;-78
2021/05/21 11:24:39;;;;;;;24.60;5.15;;;18.00;99.90;;;;;;6260214;22;20184;-79
2021/05/21 11:27:08;;;;;;;24.67;5.20;;;18.00;99.90;;;;;;6262533;22;20175;-78
2021/05/21 11:29:36;;;;;;;26.08;5.68;;;18.20;99.90;;;;;;6260928;22;20847;-78
2021/05/21 11:32:06;;;;;;;25.00;5.35;;;18.40;99.90;;;;;;6259396;22;20198;-79
2021/05/21 11:34:32;;;;;;;19.75;5.78;;;18.40;99.90;;;;;;6262017;22;20196;-77
2021/05/21 11:36:58;;;;;;;32.83;5.72;;;18.50;99.90;;;;;;6261651;22;20187;-83
2021/05/21 11:39:26;;;;;;;20.52;4.93;;;18.50;99.90;;;;;;6260698;22;20173;-77
2021/05/21 11:41:54;;;;;;;21.75;5.82;;;18.70;99.90;;;;;;6261349;22;20254;-76
2021/05/21 11:44:26;;;;;;;22.95;5.45;;;18.80;99.90;;;;;;6260664;22;20280;-78
2021/05/21 11:46:58;;;;;;;19.98;4.85;;;19.00;99.90;;;;;;6261698;22;20247;-78
2021/05/21 11:49:24;;;;;;;24.13;5.20;;;19.10;99.90;;;;;;6261198;22;20951;-76
2021/05/21 11:51:56;;;;;;;22.77;4.40;;;19.10;99.90;;;;;;6259844;22;20192;-79
2021/05/21 11:54:22;;;;;;;21.17;5.25;;;18.90;99.90;;;;;;6261088;22;20165;-78
2021/05/21 11:56:49;;;;;;;21.20;5.22;;;18.90;99.90;;;;;;6260837;22;20205;-82
2021/05/21 11:59:18;;;;;;;26.75;4.82;;;18.80;99.90;;;;;;6260419;22;20172;-79
2021/05/21 12:01:47;;;;;;;20.55;4.70;;;18.60;99.90;;;;;;6262144;22;20173;-77
2021/05/21 12:04:15;;;;;;;22.50;4.95;;;18.60;99.90;;;;;;6264080;22;20173;-78
2021/05/21 12:06:44;;;;;;;24.80;4.68;;;18.60;99.90;;;;;;6262788;22;20276;-76
2021/05/21 12:09:11;;;;;;;18.88;4.60;;;18.60;99.90;;;;;;6263263;22;20172;-77
2021/05/21 12:11:38;;;;;;;17.00;4.40;;;18.60;99.90;;;;;;6262909;22;20188;-76
2021/05/21 12:14:07;;;;;;;30.65;5.25;;;18.60;99.90;;;;;;6261895;22;20862;-80
2021/05/21 12:16:34;;;;;;;24.75;4.80;;;18.60;99.90;;;;;;6262647;22;20164;-79
2021/05/21 12:19:02;;;;;;;20.85;5.90;;;18.60;99.90;;;;;;6261440;22;20177;-78
2021/05/21 12:21:30;;;;;;;26.38;4.63;;;18.70;99.90;;;;;;6262721;22;20177;-77
2021/05/21 12:23:57;;;;;;;26.92;6.03;;;18.70;99.90;;;;;;6262879;22;20604;-79
2021/05/21 12:26:26;;;;;;;29.88;7.78;;;18.50;99.90;;;;;;6262390;22;20172;-79
2021/05/21 12:28:54;;;;;;;21.90;5.43;;;18.40;99.90;;;;;;6264948;22;20248;-77
2021/05/21 12:31:23;;;;;;;23.52;5.10;;;18.30;99.90;;;;;;6263826;22;20620;-78
2021/05/21 12:33:51;;;;;;;21.75;4.70;;;18.40;99.90;;;;;;6260914;22;20181;-76
2021/05/21 12:36:18;;;;;;;21.92;5.50;;;18.30;99.90;;;;;;6264917;22;20478;-82
2021/05/21 12:38:49;;;;;;;13.80;3.95;;;18.20;99.90;;;;;;6265644;22;20180;-79
2021/05/21 12:41:16;;;;;;;26.50;4.68;;;18.20;99.90;;;;;;6264735;22;20199;-77